Time;durP1;ratioP1;P1;durP2;ratioP2;P2;SDS_P1;SDS_P2;PMS_P1;PMS_P2;Temp;Humidity;BMP_temperature;BMP_pressure;BME280_temperature;BME280_humidity;BME280_pressure;Samples;Min_cycle;Max_cycle;Signal;HPM_P1;HPM_P2
2021/11/02 00:01:26;;;;;;;88.00;53.60;;;;;;;5.26;82.85;99400.92;116813;1199;22223;-70
2021/11/02 00:03:54;;;;;;;92.00;55.10;;;;;;;5.26;82.55;99401.58;116710;1199;138125;-70
2021/11/02 00:06:23;;;;;;;88.70;54.10;;;;;;;5.23;82.57;99395.51;116812;1199;22317;-69
2021/11/02 00:08:52;;;;;;;91.80;55.90;;;;;;;5.22;82.65;99396.94;116729;1199;137670;-69
2021/11/02 00:11:20;;;;;;;90.60;54.50;;;;;;;5.22;82.81;99399.02;116830;1198;22157;-69
2021/11/02 00:13:51;;;;;;;78.90;50.00;;;;;;;5.21;82.93;99401.64;116861;1199;23481;-69
2021/11/02 00:16:22;;;;;;;81.40;53.20;;;;;;;5.20;82.91;99396.71;116553;1200;137945;-69
2021/11/02 00:18:59;;;;;;;88.80;56.10;;;;;;;5.21;82.62;99391.96;116886;1199;23004;-69
2021/11/02 00:21:30;;;;;;;80.80;53.10;;;;;;;5.21;83.07;99383.27;116730;1199;137651;-69
2021/11/02 00:24:38;;;;;;;76.20;49.00;;;;;;;5.21;82.99;99384.14;116779;1199;22306;-69
2021/11/02 00:27:05;;;;;;;80.80;52.20;;;;;;;5.22;82.96;99375.66;116712;1199;137935;-69
2021/11/02 00:29:33;;;;;;;85.90;55.10;;;;;;;5.23;82.98;99367.42;116887;1199;22337;-69
2021/11/02 00:32:01;;;;;;;86.80;56.00;;;;;;;5.24;82.95;99368.73;116729;1199;140657;-70
2021/11/02 00:34:32;;;;;;;83.60;55.00;;;;;;;5.25;83.18;99371.27;116704;1200;23066;-70
2021/11/02 00:37:00;;;;;;;83.80;51.60;;;;;;;5.26;82.92;99375.98;116823;1199;23133;-70
2021/11/02 00:39:28;;;;;;;79.70;51.30;;;;;;;5.28;83.02;99376.91;116563;1200;138806;-70
2021/11/02 00:41:56;;;;;;;78.00;51.20;;;;;;;5.31;83.38;99375.02;116698;1199;22305;-70
2021/11/02 00:44:24;;;;;;;84.60;52.80;;;;;;;5.33;83.24;99369.88;116647;1199;138408;-70
2021/11/02 00:46:55;;;;;;;80.30;53.00;;;;;;;5.35;83.18;99369.09;116764;1199;22146;-70
2021/11/02 00:49:25;;;;;;;76.80;49.90;;;;;;;5.39;83.10;99370.59;116809;1199;22318;-70
2021/11/02 00:51:56;;;;;;;77.00;52.00;;;;;;;5.42;82.84;99372.42;116630;1199;138283;-70
2021/11/02 00:55:58;;;;;;;79.00;53.40;;;;;;;5.49;83.07;99375.49;111338;1212;544796;-69
2021/11/02 00:58:26;;;;;;;81.20;53.40;;;;;;;5.51;83.16;99374.29;112094;1204;22684;-68
2021/11/02 01:00:54;;;;;;;76.70;51.00;;;;;;;5.53;83.13;99375.21;112126;1204;22454;-69
2021/11/02 01:03:22;;;;;;;78.80;50.50;;;;;;;5.53;82.94;99375.95;116175;1204;138012;-69
2021/11/02 01:05:50;;;;;;;79.40;51.20;;;;;;;5.53;83.21;99369.65;116317;1204;22300;-69
2021/11/02 01:08:19;;;;;;;77.40;48.80;;;;;;;5.51;82.84;99361.06;116190;1204;137142;-69
2021/11/02 01:10:48;;;;;;;77.60;50.80;;;;;;;5.52;83.06;99355.07;116301;1204;22307;-69
2021/11/02 01:13:16;;;;;;;74.80;49.00;;;;;;;5.52;83.18;99358.05;116323;1204;23307;-69
2021/11/02 01:15:44;;;;;;;78.00;50.70;;;;;;;5.51;83.03;99356.20;116184;1204;137709;-69
2021/11/02 01:18:13;;;;;;;78.00;50.10;;;;;;;5.54;83.19;99354.88;116274;1204;22540;-70
2021/11/02 01:20:42;;;;;;;80.30;51.00;;;;;;;5.58;83.11;99359.56;116172;1203;137726;-69
2021/11/02 01:23:11;;;;;;;79.10;48.80;;;;;;;5.59;83.10;99354.15;116766;1200;22338;-69
2021/11/02 01:25:39;;;;;;;75.30;50.10;;;;;;;5.58;82.97;99349.21;116698;1200;22395;-70
2021/11/02 01:28:07;;;;;;;74.20;47.60;;;;;;;5.56;82.85;99346.54;116514;1201;137318;-70
2021/11/02 01:30:41;;;;;;;74.70;48.70;;;;;;;5.54;82.91;99341.02;116669;1201;22305;-70
2021/11/02 01:33:11;;;;;;;76.00;50.90;;;;;;;5.54;82.79;99338.38;116414;1202;138316;-70
2021/11/02 01:35:41;;;;;;;74.00;50.30;;;;;;;5.55;83.05;99337.27;116658;1201;23047;-70
2021/11/02 01:38:10;;;;;;;75.30;49.20;;;;;;;5.57;82.85;99337.59;116511;1201;138339;-70
2021/11/02 01:40:38;;;;;;;78.20;50.70;;;;;;;5.57;83.23;99334.84;116610;1201;22331;-70
2021/11/02 01:43:06;;;;;;;75.00;49.50;;;;;;;5.60;83.13;99342.61;116632;1201;23010;-70
2021/11/02 01:45:34;;;;;;;72.70;48.30;;;;;;;5.63;83.10;99345.64;116507;1201;137529;-70
2021/11/02 01:48:05;;;;;;;77.90;48.70;;;;;;;5.63;82.98;99343.05;116648;1201;23486;-70
2021/11/02 01:50:43;;;;;;;74.60;50.70;;;;;;;5.64;83.15;99335.39;116301;1202;139022;-70
2021/11/02 01:53:11;;;;;;;76.50;51.10;;;;;;;5.62;82.98;99324.77;116484;1197;22363;-70
2021/11/02 01:55:40;;;;;;;84.00;53.00;;;;;;;5.60;82.75;99320.09;116396;1202;22251;-69
2021/11/02 01:58:14;;;;;;;77.70;51.50;;;;;;;5.59;83.02;99323.09;116179;1202;137775;-69
2021/11/02 02:00:46;;;;;;;73.70;49.40;;;;;;;5.58;83.18;99320.23;116290;1203;22236;-70
2021/11/02 02:03:37;;;;;;;80.60;51.00;;;;;;;5.56;83.42;99319.59;116114;1202;137568;-69
2021/11/02 02:06:42;;;;;;;77.00;49.70;;;;;;;5.56;83.63;99321.89;116550;1201;22794;-70
2021/11/02 02:09:33;;;;;;;76.50;47.00;;;;;;;5.54;83.88;99320.38;115920;1205;137350;-69
2021/11/02 02:12:30;;;;;;;73.70;49.30;;;;;;;5.52;83.74;99322.21;116108;1205;22971;-68
2021/11/02 02:15:11;;;;;;;73.70;49.20;;;;;;;5.53;83.85;99322.09;115944;1205;137816;-68
2021/11/02 02:17:53;;;;;;;72.20;49.00;;;;;;;5.51;84.13;99319.23;116072;1205;22330;-68
2021/11/02 02:20:28;;;;;;;82.00;50.40;;;;;;;5.50;84.22;99320.80;116092;1205;138737;-68
2021/11/02 02:23:21;;;;;;;73.50;48.90;;;;;;;5.48;83.95;99315.52;116227;1204;22132;-68
2021/11/02 02:26:00;;;;;;;78.00;52.10;;;;;;;5.48;84.41;99313.48;116214;1204;23044;-68
2021/11/02 02:28:34;;;;;;;79.40;50.20;;;;;;;5.48;84.18;99310.71;116055;1204;137580;-68
2021/11/02 02:31:06;;;;;;;76.90;50.00;;;;;;;5.49;84.47;99306.52;116182;1204;22349;-68
2021/11/02 02:33:42;;;;;;;81.40;49.70;;;;;;;5.51;84.31;99308.40;116144;1204;137339;-68
2021/11/02 02:36:11;;;;;;;75.90;48.90;;;;;;;5.51;84.41;99301.20;116247;1203;22375;-67
2021/11/02 02:38:59;;;;;;;82.10;50.50;;;;;;;5.50;84.50;99300.64;116195;1204;137320;-70
2021/11/02 02:41:31;;;;;;;77.80;50.80;;;;;;;5.49;84.55;99296.20;116121;1204;22335;-69
2021/11/02 02:44:00;;;;;;;79.30;51.30;;;;;;;5.49;84.96;99297.77;116278;1204;23123;-70
2021/11/02 02:46:28;;;;;;;82.30;50.90;;;;;;;5.50;84.65;99295.68;116194;1202;142466;-70
2021/11/02 02:48:57;;;;;;;78.10;51.00;;;;;;;5.50;84.64;99294.06;116634;1200;22318;-70
2021/11/02 02:51:25;;;;;;;80.60;52.90;;;;;;;5.51;84.80;99293.67;116292;1202;137672;-69
2021/11/02 02:53:53;;;;;;;88.50;51.20;;;;;;;5.52;85.14;99296.61;116532;1201;22390;-70
2021/11/02 02:56:23;;;;;;;79.50;53.50;;;;;;;5.53;84.88;99292.11;116288;1193;138791;-69
2021/11/02 02:58:52;;;;;;;77.70;51.40;;;;;;;5.55;84.78;99284.64;116621;1199;23197;-69
2021/11/02 03:01:21;;;;;;;75.30;49.80;;;;;;;5.56;85.09;99277.52;116574;1201;22237;-69
2021/11/02 03:04:01;;;;;;;78.40;50.30;;;;;;;5.57;84.98;99272.65;116318;1201;137473;-69
2021/11/02 03:06:32;;;;;;;78.60;50.70;;;;;;;5.58;84.88;99271.98;116555;1201;22393;-69
2021/11/02 03:09:20;;;;;;;78.10;50.80;;;;;;;5.57;85.16;99268.98;116228;1201;138281;-69
2021/11/02 03:11:56;;;;;;;77.20;50.70;;;;;;;5.58;84.81;99271.88;116599;1201;22320;-69
2021/11/02 03:14:34;;;;;;;82.70;53.30;;;;;;;5.59;84.89;99275.11;116423;1201;137905;-69
2021/11/02 03:17:07;;;;;;;77.10;51.00;;;;;;;5.58;84.87;99279.58;116267;1202;22292;-70
2021/11/02 03:58:23;;;;;;;74.60;51.10;;;;;;;5.31;86.47;99250.05;116420;1201;138349;-69
2021/11/02 04:42:12;;;;;;;96.10;64.90;;;;;;;5.27;87.20;99209.27;111898;1205;25049;-67
2021/11/02 05:20:40;;;;;;;84.30;53.50;;;;;;;5.22;88.52;99200.14;116094;1206;23217;-70
2021/11/02 06:06:31;;;;;;;86.50;53.10;;;;;;;5.30;88.98;99207.98;116014;1207;22254;-70
2021/11/02 06:09:20;;;;;;;84.90;52.00;;;;;;;5.30;88.75;99212.21;115762;1207;139281;-70
2021/11/02 06:28:49;;;;;;;88.60;52.30;;;;;;;5.39;88.88;99215.52;115969;1204;138515;-70
2021/11/02 06:31:34;;;;;;;89.10;52.80;;;;;;;5.39;88.80;99217.47;116363;1203;22303;-70
2021/11/02 06:34:16;;;;;;;82.50;51.10;;;;;;;5.39;88.91;99209.36;116133;1203;137396;-70
2021/11/02 06:48:05;;;;;;;86.80;51.50;;;;;;;5.41;89.24;99194.46;116182;1204;137214;-71
2021/11/02 06:56:49;;;;;;;85.20;51.50;;;;;;;5.45;89.10;99199.39;116344;1203;23412;-71
2021/11/02 06:59:48;;;;;;;80.10;48.50;;;;;;;5.49;89.09;99197.30;116156;1204;137597;-71
2021/11/02 08:47:35;;;;;;;72.50;43.70;;;;;;;5.78;90.85;99125.39;116131;1203;138726;-70
2021/11/02 08:50:05;;;;;;;74.10;44.10;;;;;;;5.79;90.77;99121.90;116271;1204;22321;-70
2021/11/02 08:52:34;;;;;;;72.40;46.50;;;;;;;5.83;90.67;99124.86;116070;1204;138374;-70
2021/11/02 08:55:07;;;;;;;74.80;46.60;;;;;;;5.86;90.97;99117.70;116317;1203;22402;-71
2021/11/02 08:57:35;;;;;;;73.00;47.10;;;;;;;5.89;90.90;99116.17;116275;1203;22329;-71
2021/11/02 09:00:04;;;;;;;71.00;45.00;;;;;;;5.92;90.87;99112.06;116216;1190;138325;-70
2021/11/02 09:02:34;;;;;;;71.80;43.00;;;;;;;5.94;91.06;99110.74;116275;1204;22448;-70
2021/11/02 09:05:07;;;;;;;64.20;39.70;;;;;;;5.95;90.97;99106.11;116159;1203;138104;-70
2021/11/02 09:07:36;;;;;;;68.00;40.90;;;;;;;5.96;91.08;99105.16;116231;1203;23174;-70
2021/11/02 09:10:18;;;;;;;63.00;38.40;;;;;;;5.98;90.95;99097.92;116221;1204;22262;-70
2021/11/02 09:12:49;;;;;;;64.00;38.30;;;;;;;6.00;90.93;99092.61;116125;1204;137835;-72
2021/11/02 09:15:44;;;;;;;56.10;37.40;;;;;;;6.00;90.73;99096.94;116260;1204;23011;-70
2021/11/02 09:18:13;;;;;;;57.90;35.80;;;;;;;5.99;90.98;99091.06;116154;1204;137858;-71
2021/11/02 09:20:41;;;;;;;58.90;37.40;;;;;;;5.98;90.69;99080.84;116250;1204;22358;-71
2021/11/02 09:23:09;;;;;;;55.00;35.60;;;;;;;6.00;91.09;99077.95;116142;1204;137943;-70
2021/11/02 09:25:38;;;;;;;48.60;33.10;;;;;;;6.01;90.83;99072.50;116252;1204;22200;-70
2021/11/02 09:28:06;;;;;;;49.90;32.10;;;;;;;6.01;91.00;99069.80;116241;1203;22360;-71
2021/11/02 09:30:35;;;;;;;46.00;30.80;;;;;;;6.02;91.05;99062.42;116166;1204;137652;-70
2021/11/02 09:33:03;;;;;;;51.90;31.50;;;;;;;6.04;91.18;99062.68;116283;1204;22197;-70
2021/11/02 09:35:32;;;;;;;47.90;35.30;;;;;;;6.06;91.20;99057.40;116094;1204;139413;-71
2021/11/02 09:38:00;;;;;;;49.00;34.70;;;;;;;6.06;91.02;99050.30;116232;1204;22328;-71
2021/11/02 09:40:28;;;;;;;44.30;31.90;;;;;;;6.10;91.16;99049.80;113673;1196;138933;-70
2021/11/02 09:43:05;;;;;;;49.40;32.40;;;;;;;6.12;91.17;99046.52;112055;1203;24869;-70
2021/11/02 09:46:00;;;;;;;41.60;28.30;;;;;;;6.15;91.18;99044.34;115713;1204;25159;-70
2021/11/02 09:48:53;;;;;;;37.70;27.40;;;;;;;6.18;91.28;99039.79;111684;1196;138782;-70
2021/11/02 09:52:22;;;;;;;36.60;28.10;;;;;;;6.22;91.62;99030.23;111917;1193;22461;-70
2021/11/02 09:55:09;;;;;;;39.30;27.10;;;;;;;6.26;91.53;99019.11;111596;1203;137853;-72
2021/11/02 09:57:48;;;;;;;41.80;29.20;;;;;;;6.32;91.81;99012.46;115923;1207;23397;-70
2021/11/02 10:01:12;;;;;;;42.20;31.70;;;;;;;6.35;91.57;99010.88;115897;1206;138654;-70
2021/11/02 10:04:09;;;;;;;55.30;33.70;;;;;;;6.39;91.56;99010.08;115958;1207;22253;-70
2021/11/02 10:06:47;;;;;;;44.80;31.50;;;;;;;6.41;91.51;99009.38;115856;1207;138906;-71
2021/11/02 10:09:31;;;;;;;35.70;27.00;;;;;;;6.42;91.59;99008.10;115942;1192;22169;-69
2021/11/02 10:12:21;;;;;;;51.10;33.10;;;;;;;6.45;91.79;99000.63;115881;1206;137793;-70
2021/11/02 10:14:58;;;;;;;53.00;37.90;;;;;;;6.49;91.78;99002.16;115988;1206;22309;-70
2021/11/02 10:17:41;;;;;;;39.70;31.40;;;;;;;6.52;91.88;98996.90;115847;1207;138071;-70
2021/11/02 10:20:30;;;;;;;38.50;29.00;;;;;;;6.54;91.59;98990.38;115923;1207;22365;-70
2021/11/02 10:23:24;;;;;;;35.80;26.60;;;;;;;6.53;91.53;98984.56;115909;1207;139335;-69
2021/11/02 10:26:23;;;;;;;39.70;26.10;;;;;;;6.51;91.66;98982.60;116171;1204;22376;-70
2021/11/02 10:29:18;;;;;;;30.10;22.50;;;;;;;6.54;91.67;98985.09;116178;1203;137798;-71
2021/11/02 10:32:12;;;;;;;31.00;23.00;;;;;;;6.52;91.40;98981.36;116199;1203;23089;-70
2021/11/02 10:34:59;;;;;;;97.10;70.70;;;;;;;6.51;91.17;98971.61;116205;1204;138023;-71
2021/11/02 10:37:56;;;;;;;82.80;66.10;;;;;;;6.51;91.39;98965.00;116259;1204;22388;-70
2021/11/02 10:40:27;;;;;;;52.20;41.30;;;;;;;6.50;91.22;98960.54;116288;1204;22926;-70
2021/11/02 10:43:03;;;;;;;40.90;32.30;;;;;;;6.52;91.33;98956.23;116142;1203;138284;-70
2021/11/02 10:45:32;;;;;;;33.20;26.80;;;;;;;6.53;91.57;98952.26;116210;1204;22179;-70
2021/11/02 10:48:10;;;;;;;33.00;27.10;;;;;;;6.54;91.43;98949.83;116078;1204;137846;-70
2021/11/02 10:50:46;;;;;;;35.10;27.30;;;;;;;6.55;91.54;98943.41;116311;1203;22151;-70
2021/11/02 10:53:27;;;;;;;34.30;24.30;;;;;;;6.56;91.45;98940.19;116108;1204;138285;-70
2021/11/02 10:56:20;;;;;;;38.40;25.50;;;;;;;6.58;91.60;98933.40;116168;1204;23025;-70
2021/11/02 10:58:49;;;;;;;31.20;24.20;;;;;;;6.59;91.59;98929.41;116191;1203;138237;-68
2021/11/02 11:01:21;;;;;;;35.70;24.60;;;;;;;6.60;91.56;98925.11;116278;1204;23098;-70
2021/11/02 11:03:50;;;;;;;40.30;27.80;;;;;;;6.62;91.77;98918.54;116170;1203;22326;-70
2021/11/02 11:06:18;;;;;;;43.20;27.10;;;;;;;6.62;91.83;98914.36;116105;1204;137845;-70
2021/11/02 11:08:47;;;;;;;40.70;23.20;;;;;;;6.64;91.89;98910.10;116268;1204;22336;-70
2021/11/02 11:11:18;;;;;;;32.00;23.20;;;;;;;6.66;91.74;98911.48;116141;1204;138528;-70
2021/11/02 11:13:47;;;;;;;33.10;21.80;;;;;;;6.69;91.85;98910.34;116241;1204;22318;-72
2021/11/02 11:16:19;;;;;;;30.80;21.50;;;;;;;6.70;91.88;98904.84;116197;1204;22332;-70
2021/11/02 11:19:02;;;;;;;36.20;24.90;;;;;;;6.71;91.94;98901.23;116114;1204;138442;-69
2021/11/02 11:21:33;;;;;;;41.00;29.60;;;;;;;6.73;91.89;98896.55;116236;1205;22243;-68
2021/11/02 11:24:11;;;;;;;39.80;26.20;;;;;;;6.73;91.90;98895.33;116167;1203;138091;-68
2021/11/02 11:26:46;;;;;;;48.00;27.00;;;;;;;6.73;91.84;98894.77;116266;1203;22371;-68
2021/11/02 11:29:20;;;;;;;47.90;29.20;;;;;;;6.73;91.73;98890.11;116166;1204;138295;-68
2021/11/02 11:31:48;;;;;;;61.30;38.10;;;;;;;6.73;91.94;98882.48;116235;1203;22354;-70
2021/11/02 11:34:17;;;;;;;48.60;29.50;;;;;;;6.75;91.77;98885.86;116279;1203;22304;-70
2021/11/02 11:36:49;;;;;;;57.90;35.30;;;;;;;6.76;91.73;98885.94;116170;1203;138680;-71
2021/11/02 11:39:19;;;;;;;63.20;34.30;;;;;;;6.76;91.86;98877.48;116212;1204;22348;-70
2021/11/02 11:41:51;;;;;;;94.00;46.60;;;;;;;6.77;91.96;98872.46;116152;1203;137811;-70
2021/11/02 11:44:21;;;;;;;70.50;38.60;;;;;;;6.76;91.67;98868.11;116215;1203;23133;-70
2021/11/02 11:47:06;;;;;;;51.30;27.40;;;;;;;6.77;91.68;98868.63;116175;1203;139889;-70
2021/11/02 11:49:40;;;;;;;46.10;27.50;;;;;;;6.77;91.73;98864.52;116293;1204;22322;-70
2021/11/02 11:52:10;;;;;;;57.20;30.10;;;;;;;6.76;91.73;98863.95;116202;1203;22354;-70
2021/11/02 11:54:45;;;;;;;72.00;36.50;;;;;;;6.75;91.72;98862.91;116163;1200;140507;-70
2021/11/02 11:57:15;;;;;;;56.80;29.90;;;;;;;6.77;92.04;98857.04;116251;1204;22298;-70
2021/11/02 11:59:45;;;;;;;46.20;26.60;;;;;;;6.80;91.78;98856.84;116153;1196;138081;-70
2021/11/02 12:02:22;;;;;;;46.40;26.50;;;;;;;6.81;91.89;98855.66;116272;1203;23129;-69
2021/11/02 12:04:53;;;;;;;50.90;25.20;;;;;;;6.81;91.90;98855.88;116112;1203;138609;-70
2021/11/02 12:07:37;;;;;;;45.10;24.30;;;;;;;6.79;91.81;98851.09;116227;1203;22388;-70
2021/11/02 12:10:07;;;;;;;47.70;23.80;;;;;;;6.77;91.85;98849.95;116200;1204;22358;-70
2021/11/02 12:12:35;;;;;;;49.60;26.40;;;;;;;6.78;92.04;98849.90;116115;1203;137793;-68
2021/11/02 12:15:22;;;;;;;54.80;26.60;;;;;;;6.79;92.08;98848.80;116226;1204;22334;-68
2021/11/02 12:17:51;;;;;;;50.20;27.20;;;;;;;6.78;92.18;98848.59;116190;1204;138753;-68
2021/11/02 12:20:21;;;;;;;56.20;27.60;;;;;;;6.80;92.09;98854.14;116216;1204;22367;-68
2021/11/02 12:22:53;;;;;;;38.90;21.50;;;;;;;6.82;92.18;98852.76;116139;1203;138033;-69
2021/11/02 12:25:26;;;;;;;39.00;21.80;;;;;;;6.80;92.05;98856.84;116255;1200;22969;-70
2021/11/02 12:27:55;;;;;;;36.00;21.00;;;;;;;6.80;91.99;98858.02;116257;1204;22272;-70
2021/11/02 12:30:24;;;;;;;29.20;19.80;;;;;;;6.78;91.89;98862.20;116123;1204;138106;-70
2021/11/02 12:32:56;;;;;;;30.40;19.70;;;;;;;6.77;91.93;98863.00;116224;1204;22355;-71
2021/11/02 12:35:39;;;;;;;29.20;19.20;;;;;;;6.76;92.05;98859.69;116158;1203;138334;-70
2021/11/02 12:38:12;;;;;;;27.20;18.00;;;;;;;6.76;92.23;98852.15;116241;1204;22444;-70
2021/11/02 12:40:42;;;;;;;28.20;17.40;;;;;;;6.76;91.99;98850.09;116176;1203;138933;-70
2021/11/02 12:43:27;;;;;;;26.90;18.50;;;;;;;6.75;92.19;98843.10;116218;1204;22338;-69
2021/11/02 12:46:01;;;;;;;30.50;18.90;;;;;;;6.76;92.19;98844.63;116228;1204;22354;-70
2021/11/02 12:48:32;;;;;;;24.20;17.50;;;;;;;6.76;92.26;98838.95;116114;1203;139103;-70
2021/11/02 12:51:15;;;;;;;21.90;16.50;;;;;;;6.75;92.17;98834.92;116178;1204;23037;-70
2021/11/02 12:53:47;;;;;;;19.50;15.60;;;;;;;6.74;92.40;98834.70;116091;1204;138977;-71
2021/11/02 12:56:18;;;;;;;21.90;17.30;;;;;;;6.74;92.30;98832.63;116078;1204;22581;-71
2021/11/02 12:58:48;;;;;;;22.10;17.50;;;;;;;6.75;92.46;98828.64;116097;1203;138213;-71
2021/11/02 13:01:33;;;;;;;22.90;16.90;;;;;;;6.73;92.31;98833.00;116273;1203;23086;-71
2021/11/02 13:04:12;;;;;;;30.00;17.50;;;;;;;6.75;92.36;98836.92;116265;1203;22193;-73
2021/11/02 13:06:44;;;;;;;20.70;15.80;;;;;;;6.75;92.56;98836.43;116216;1202;138930;-72
2021/11/02 13:09:14;;;;;;;25.20;17.20;;;;;;;6.76;92.56;98831.30;116232;1203;22355;-72
2021/11/02 13:12:54;;;;;;;30.70;23.10;;;;;;;6.79;92.63;98825.55;110995;1209;544923;-72
2021/11/02 13:15:22;;;;;;;25.40;19.50;;;;;;;6.77;92.56;98820.23;116431;1203;22343;-72
2021/11/02 13:17:53;;;;;;;25.80;17.40;;;;;;;6.77;92.58;98817.56;116122;1203;137961;-71
2021/11/02 13:20:46;;;;;;;25.40;17.30;;;;;;;6.76;92.64;98815.22;116298;1203;22370;-71
2021/11/02 13:23:15;;;;;;;24.60;17.30;;;;;;;6.77;92.73;98818.48;116235;1203;137402;-72
2021/11/02 13:25:44;;;;;;;23.50;17.40;;;;;;;6.75;92.73;98817.05;116389;1203;22410;-72
2021/11/02 13:28:11;;;;;;;26.00;18.30;;;;;;;6.74;92.92;98812.12;116249;1204;22316;-71
2021/11/02 13:30:43;;;;;;;26.60;17.90;;;;;;;6.76;92.74;98810.88;116083;1204;137574;-71
2021/11/02 13:33:15;;;;;;;24.80;17.00;;;;;;;6.77;92.95;98812.27;116205;1204;22267;-71
2021/11/02 13:35:53;;;;;;;34.80;19.70;;;;;;;6.78;92.88;98812.15;116163;1204;138169;-71
2021/11/02 13:38:36;;;;;;;28.20;18.70;;;;;;;6.78;92.97;98810.91;116322;1203;22146;-72
2021/11/02 13:41:20;;;;;;;29.70;18.20;;;;;;;6.79;92.96;98804.25;116133;1204;138341;-71
2021/11/02 13:43:49;;;;;;;28.00;18.40;;;;;;;6.80;93.12;98804.96;116750;1200;22249;-71
2021/11/02 13:46:19;;;;;;;31.40;21.40;;;;;;;6.80;93.14;98801.88;116765;1200;22286;-71
2021/11/02 13:48:47;;;;;;;32.80;20.80;;;;;;;6.81;93.27;98797.55;116610;1200;137721;-71
2021/11/02 13:51:17;;;;;;;32.90;21.80;;;;;;;6.82;93.30;98793.95;116702;1201;22319;-71
2021/11/02 13:53:45;;;;;;;36.50;22.10;;;;;;;6.81;93.43;98794.98;116663;1200;137961;-72
2021/11/02 13:56:14;;;;;;;31.20;21.40;;;;;;;6.83;93.30;98797.16;116787;1200;22321;-72
2021/11/02 13:58:42;;;;;;;34.20;21.50;;;;;;;6.85;93.43;98792.96;116637;1200;138048;-73
2021/11/02 14:01:37;;;;;;;34.30;21.50;;;;;;;6.85;93.24;98791.56;116688;1200;22363;-72
2021/11/02 14:04:27;;;;;;;36.70;22.10;;;;;;;6.86;93.55;98791.46;116663;1200;22435;-73
2021/11/02 14:07:01;;;;;;;31.20;21.10;;;;;;;6.87;93.42;98792.56;116635;1200;137541;-72
2021/11/02 14:09:31;;;;;;;33.00;22.10;;;;;;;6.88;93.55;98790.09;116645;1193;22255;-72
2021/11/02 14:12:25;;;;;;;32.10;21.70;;;;;;;6.90;93.47;98788.38;116546;1201;138151;-71
2021/11/02 14:15:15;;;;;;;30.50;21.10;;;;;;;6.91;93.62;98788.50;116712;1201;23045;-72
2021/11/02 14:17:44;;;;;;;31.10;21.40;;;;;;;6.91;93.58;98781.42;116554;1200;137340;-72
2021/11/02 14:20:32;;;;;;;44.20;31.80;;;;;;;6.92;93.49;98784.23;116711;1200;22258;-73
2021/11/02 14:23:00;;;;;;;;;;;;;;;6.93;93.62;98788.67;116470;1201;137815;-71
2021/11/02 14:25:36;;;;;;;42.70;31.00;;;;;;;6.94;93.54;98783.48;116678;1193;22425;-69
2021/11/02 14:28:08;;;;;;;42.30;33.20;;;;;;;6.94;93.83;98782.89;116659;1201;22118;-72
2021/11/02 14:30:42;;;;;;;38.50;27.80;;;;;;;6.94;93.75;98782.18;116585;1200;137417;-71
2021/11/02 14:33:19;;;;;;;35.30;24.40;;;;;;;6.96;94.01;98776.04;116702;1201;22335;-72
2021/11/02 14:36:04;;;;;;;42.40;28.90;;;;;;;6.97;93.80;98780.77;116558;1197;137465;-72
2021/11/02 14:38:45;;;;;;;31.60;23.40;;;;;;;6.99;93.74;98783.77;116719;1200;22336;-72
2021/11/02 14:41:34;;;;;;;31.90;21.40;;;;;;;6.99;93.71;98784.91;116562;1201;137888;-72
2021/11/02 14:44:14;;;;;;;30.80;21.30;;;;;;;7.00;93.86;98786.27;116674;1196;22243;-72
2021/11/02 14:46:49;;;;;;;48.00;32.80;;;;;;;7.01;93.79;98783.74;116583;1200;137953;-73
2021/11/02 14:49:30;;;;;;;39.40;26.30;;;;;;;7.01;93.95;98784.02;116613;1201;22367;-72
2021/11/02 14:52:09;;;;;;;38.00;27.20;;;;;;;7.03;93.85;98781.44;116686;1201;22475;-73
2021/11/02 14:54:44;;;;;;;41.50;29.00;;;;;;;7.04;94.11;98779.40;116491;1200;137653;-72
2021/11/02 14:57:20;;;;;;;43.30;29.70;;;;;;;7.06;93.88;98780.98;116574;1201;23184;-73
2021/11/02 14:59:55;;;;;;;57.50;34.30;;;;;;;7.08;93.89;98780.02;116539;1200;138620;-72
2021/11/02 15:02:42;;;;;;;57.50;32.70;;;;;;;7.10;93.98;98780.26;116677;1200;22794;-72
2021/11/02 15:05:12;;;;;;;49.50;28.90;;;;;;;7.12;94.08;98780.17;116554;1201;137881;-72
2021/11/02 15:07:45;;;;;;;49.80;33.10;;;;;;;7.11;94.00;98781.52;116610;1200;23181;-72
2021/11/02 15:10:15;;;;;;;59.70;35.90;;;;;;;7.16;94.05;98787.81;116706;1186;24255;-73
2021/11/02 15:12:44;;;;;;;94.70;48.20;;;;;;;7.18;93.94;98788.55;116689;1199;137363;-72
2021/11/02 15:15:12;;;;;;;94.80;50.20;;;;;;;7.19;94.02;98788.89;116680;1200;23225;-73
2021/11/02 15:17:40;;;;;;;92.30;50.30;;;;;;;7.21;93.94;98781.15;116807;1199;137861;-72
2021/11/02 15:20:26;;;;;;;90.10;47.60;;;;;;;7.23;93.90;98785.34;116725;1200;22353;-72
2021/11/02 15:22:57;;;;;;;71.30;38.90;;;;;;;7.23;94.11;98780.58;116449;1201;138326;-72
2021/11/02 15:25:26;;;;;;;90.40;47.60;;;;;;;7.25;94.08;98778.21;116854;1199;22338;-71
2021/11/02 15:28:02;;;;;;;91.40;48.80;;;;;;;7.26;94.06;98778.71;116863;1200;22257;-73
2021/11/02 15:30:31;;;;;;;72.40;40.80;;;;;;;7.28;93.97;98778.73;116756;1200;137809;-71
2021/11/02 15:32:59;;;;;;;64.70;36.30;;;;;;;7.29;93.85;98778.42;116687;1200;22232;-73
2021/11/02 15:35:27;;;;;;;49.20;30.90;;;;;;;7.30;94.13;98778.05;116702;1199;137274;-73
2021/11/02 15:37:58;;;;;;;56.90;34.20;;;;;;;7.30;93.95;98772.53;116849;1199;22371;-71
2021/11/02 15:40:41;;;;;;;65.90;40.60;;;;;;;7.30;94.07;98771.45;114503;1200;22478;-71
2021/11/02 15:43:12;;;;;;;65.00;43.90;;;;;;;7.30;94.07;98768.20;116725;1198;138059;-71
2021/11/02 15:45:44;;;;;;;55.50;35.30;;;;;;;7.30;94.00;98767.61;116697;1200;22384;-71
2021/11/02 15:48:15;;;;;;;48.80;32.40;;;;;;;7.31;94.00;98770.64;116740;1199;137842;-71
2021/11/02 15:50:48;;;;;;;47.80;31.00;;;;;;;7.32;94.00;98774.98;116887;1199;22329;-71
2021/11/02 15:53:23;;;;;;;48.10;29.10;;;;;;;7.32;94.05;98777.05;116737;1199;138055;-71
2021/11/02 15:55:57;;;;;;;68.60;43.80;;;;;;;7.34;94.07;98777.02;116863;1199;22334;-70
2021/11/02 15:58:29;;;;;;;72.30;38.00;;;;;;;7.34;94.12;98778.38;116884;1199;22264;-70
2021/11/02 16:00:56;;;;;;;46.00;30.50;;;;;;;7.36;94.21;98777.40;116707;1199;137780;-70
2021/11/02 16:03:32;;;;;;;42.40;29.40;;;;;;;7.37;94.20;98775.02;116880;1199;22319;-71
2021/11/02 16:06:05;;;;;;;41.70;27.70;;;;;;;7.38;94.14;98779.20;116564;1200;138182;-71
2021/11/02 16:08:34;;;;;;;45.40;31.70;;;;;;;7.38;94.08;98777.64;116734;1200;22306;-75
2021/11/02 16:11:07;;;;;;;69.10;48.80;;;;;;;7.39;94.19;98774.88;116706;1200;138154;-74
2021/11/02 16:13:36;;;;;;;48.70;34.80;;;;;;;7.41;94.02;98777.78;116892;1200;22472;-74
2021/11/02 16:16:05;;;;;;;48.40;35.00;;;;;;;7.43;94.33;98780.57;116876;1199;23454;-74
2021/11/02 16:18:35;;;;;;;95.50;60.50;;;;;;;7.43;94.20;98778.95;116534;1200;138381;-74
2021/11/02 16:21:04;;;;;;;69.40;46.10;;;;;;;7.45;94.23;98778.76;116906;1199;22319;-73
2021/11/02 16:23:49;;;;;;;50.80;34.60;;;;;;;7.47;94.19;98777.20;116722;1200;138062;-76
2021/11/02 16:26:18;;;;;;;47.80;31.10;;;;;;;7.47;94.25;98774.11;116858;1196;23466;-73
2021/11/02 16:28:46;;;;;;;58.70;37.30;;;;;;;7.47;94.11;98768.69;116858;1199;22316;-73
2021/11/02 16:31:27;;;;;;;64.70;38.20;;;;;;;7.47;94.39;98763.17;116752;1199;137833;-76
2021/11/02 16:33:56;;;;;;;70.70;40.00;;;;;;;7.48;94.04;98760.95;116807;1199;22526;-77
2021/11/02 16:36:30;;;;;;;57.80;36.50;;;;;;;7.48;94.20;98760.52;116865;1197;137776;-73
2021/11/02 16:39:22;;;;;;;41.90;27.60;;;;;;;7.48;94.26;98759.23;116846;1199;22338;-73
2021/11/02 16:41:53;;;;;;;46.90;29.50;;;;;;;7.47;94.09;98757.25;116695;1200;137785;-78
2021/11/02 16:44:31;;;;;;;54.10;33.70;;;;;;;7.49;94.24;98764.21;115853;1201;24888;-75
2021/11/02 16:47:10;;;;;;;46.30;32.20;;;;;;;7.50;94.24;98762.65;113442;1200;139062;-76
2021/11/02 16:49:39;;;;;;;50.40;33.50;;;;;;;7.50;94.31;98761.45;114283;1193;24022;-76
2021/11/02 16:52:10;;;;;;;54.00;35.10;;;;;;;7.51;94.25;98760.64;114790;1200;25053;-77